createdAt,value
2022-11-17T00:00:50.767Z,10.38
2022-11-17T00:02:52.555Z,10.40
2022-11-17T00:04:54.160Z,10.44
2022-11-17T00:06:57.007Z,10.33
2022-11-17T00:08:58.786Z,10.34
2022-11-17T00:11:04.115Z,10.38
2022-11-17T00:13:24.243Z,10.48
2022-11-17T00:15:25.808Z,10.55
2022-11-17T00:17:27.934Z,10.58
2022-11-17T00:19:48.047Z,10.12
2022-11-17T00:21:49.868Z,10.13
2022-11-17T00:23:51.499Z,10.22
2022-11-17T00:25:53.090Z,10.23
2022-11-17T00:27:54.742Z,10.31
2022-11-17T00:29:57.035Z,10.39
2022-11-17T00:32:17.084Z,10.42
2022-11-17T00:34:23.487Z,10.47
2022-11-17T00:36:25.946Z,10.55
2022-11-17T00:38:27.569Z,10.59
2022-11-17T00:40:29.305Z,10.63
2022-11-17T00:42:30.895Z,10.69
2022-11-17T00:44:32.498Z,10.71
2022-11-17T00:46:35.100Z,10.71
2022-11-17T00:48:36.679Z,10.41
2022-11-17T00:50:38.309Z,9.96
2022-11-17T00:52:39.868Z,10.04
2022-11-17T00:54:41.476Z,10.14
2022-11-17T00:56:43.334Z,10.23
2022-11-17T00:58:45.106Z,10.28
2022-11-17T01:00:49.299Z,10.10
2022-11-17T01:02:51.016Z,9.91
2022-11-17T01:04:52.629Z,9.96
2022-11-17T01:06:54.339Z,10.07
2022-11-17T01:08:55.981Z,10.21
2022-11-17T01:11:04.912Z,10.37
2022-11-17T01:13:06.496Z,10.47
2022-11-17T01:15:08.763Z,10.57
2022-11-17T01:17:10.375Z,10.63
2022-11-17T01:19:14.143Z,10.70
2022-11-17T01:21:18.587Z,10.69
2022-11-17T01:23:20.152Z,10.69
2022-11-17T01:25:21.716Z,10.72
2022-11-17T01:27:23.399Z,10.44
2022-11-17T01:29:24.979Z,10.31
2022-11-17T01:31:29.131Z,10.37
2022-11-17T01:33:31.077Z,10.39
2022-11-17T01:35:34.609Z,10.47
2022-11-17T01:37:36.198Z,10.45
2022-11-17T01:39:37.831Z,10.47
2022-11-17T01:41:39.621Z,10.55
2022-11-17T01:43:52.705Z,10.61
2022-11-17T01:46:00.560Z,10.56
2022-11-17T01:48:03.623Z,10.39
2022-11-17T01:50:28.496Z,10.43
2022-11-17T01:52:31.002Z,10.51
2022-11-17T01:54:34.521Z,10.58
2022-11-17T01:56:40.169Z,10.65
2022-11-17T01:58:45.605Z,10.67
2022-11-17T02:00:47.549Z,10.74
2022-11-17T02:02:49.477Z,10.77
2022-11-17T02:05:07.246Z,10.75
2022-11-17T02:07:18.266Z,10.78
2022-11-17T02:09:20.230Z,10.81
2022-11-17T02:11:22.955Z,10.85
2022-11-17T02:13:24.715Z,10.84
2022-11-17T02:15:27.481Z,10.85
2022-11-17T02:17:42.935Z,10.86
2022-11-17T02:19:45.624Z,10.87
2022-11-17T02:22:08.945Z,10.82
2022-11-17T02:24:34.459Z,10.72
2022-11-17T02:26:57.398Z,10.78
2022-11-17T02:29:17.013Z,10.81
2022-11-17T02:31:51.513Z,10.81
2022-11-17T02:33:58.536Z,10.80
2022-11-17T02:36:18.148Z,10.80
2022-11-17T02:38:31.939Z,10.82
2022-11-17T02:40:54.096Z,10.79
2022-11-17T02:43:21.708Z,10.75
2022-11-17T02:45:29.582Z,10.76
2022-11-17T02:47:33.096Z,10.78
2022-11-17T02:49:39.860Z,10.82
2022-11-17T02:51:43.299Z,10.76
2022-11-17T02:53:45.124Z,10.75
2022-11-17T02:55:51.651Z,10.78
2022-11-17T02:57:53.464Z,10.79
2022-11-17T02:59:55.439Z,10.82
2022-11-17T03:02:07.696Z,10.91
2022-11-17T03:04:32.531Z,10.90
2022-11-17T03:06:45.276Z,10.94
2022-11-17T03:09:08.605Z,10.94
2022-11-17T03:11:11.148Z,10.77
2022-11-17T03:13:18.484Z,10.58
2022-11-17T03:15:33.036Z,10.36
2022-11-17T03:18:02.036Z,10.25
2022-11-17T03:20:14.452Z,10.37
2022-11-17T03:22:56.633Z,10.45
2022-11-17T03:25:02.201Z,10.47
2022-11-17T03:27:13.725Z,10.43
2022-11-17T03:29:18.385Z,10.50
2022-11-17T03:31:20.929Z,10.45
2022-11-17T03:33:23.815Z,10.11
2022-11-17T03:35:28.272Z,10.16
2022-11-17T03:37:32.037Z,10.29
2022-11-17T03:39:36.939Z,10.39
2022-11-17T03:41:42.380Z,10.45
2022-11-17T03:43:45.210Z,10.54
2022-11-17T03:45:52.396Z,10.62
2022-11-17T03:48:03.634Z,10.55
2022-11-17T03:50:19.196Z,10.22
2022-11-17T03:52:21.516Z,10.09
2022-11-17T03:54:23.381Z,10.10
2022-11-17T03:56:49.206Z,10.21
2022-11-17T03:59:02.128Z,10.34
2022-11-17T04:01:05.649Z,10.45
2022-11-17T04:03:07.291Z,10.51
2022-11-17T04:05:10.227Z,10.55
2022-11-17T04:07:11.881Z,10.61
2022-11-17T04:09:13.637Z,10.66
2022-11-17T04:11:33.532Z,10.75
2022-11-17T04:13:53.396Z,10.82
2022-11-17T04:15:59.274Z,10.85
2022-11-17T04:18:00.976Z,10.84
2022-11-17T04:20:02.573Z,10.74
2022-11-17T04:22:04.237Z,10.75
2022-11-17T04:24:06.334Z,10.77
2022-11-17T04:26:27.967Z,10.76
2022-11-17T04:28:39.754Z,10.81
2022-11-17T04:30:41.352Z,10.87
2022-11-17T04:32:42.920Z,10.90
2022-11-17T04:34:44.534Z,10.92
2022-11-17T04:36:46.699Z,10.95
2022-11-17T04:38:53.476Z,10.97
2022-11-17T04:41:22.948Z,10.93
2022-11-17T04:43:24.592Z,10.93
2022-11-17T04:45:26.187Z,10.96
2022-11-17T04:47:27.823Z,10.98
2022-11-17T04:49:32.055Z,10.81
2022-11-17T04:51:34.900Z,10.71
2022-11-17T04:53:37.283Z,10.70
2022-11-17T04:55:39.109Z,10.74
2022-11-17T04:57:40.679Z,10.77
2022-11-17T04:59:42.210Z,10.70
2022-11-17T05:01:44.426Z,10.74
2022-11-17T05:03:51.848Z,10.57
2022-11-17T05:05:53.421Z,10.62
2022-11-17T05:07:55.001Z,10.68
2022-11-17T05:09:56.746Z,10.60
2022-11-17T05:12:16.963Z,10.44
2022-11-17T05:14:20.339Z,10.50
2022-11-17T05:16:41.336Z,10.55
2022-11-17T05:18:43.923Z,9.91
2022-11-17T05:20:45.606Z,9.93
2022-11-17T05:23:07.039Z,10.05
2022-11-17T05:25:09.576Z,10.24
2022-11-17T05:27:11.160Z,10.13
2022-11-17T05:29:14.918Z,9.77
2022-11-17T05:31:17.067Z,9.67
2022-11-17T05:33:18.774Z,9.81
2022-11-17T05:35:20.308Z,9.71
2022-11-17T05:37:21.966Z,9.40
2022-11-17T05:39:23.576Z,9.50
2022-11-17T05:41:25.900Z,9.66
2022-11-17T05:43:27.743Z,9.78
2022-11-17T05:45:29.417Z,9.72
2022-11-17T05:47:30.999Z,9.63
2022-11-17T05:49:32.671Z,9.71
2022-11-17T05:51:34.343Z,9.87
2022-11-17T05:53:36.126Z,10.06
2022-11-17T05:55:37.988Z,10.20
2022-11-17T05:57:39.775Z,9.94
2022-11-17T05:59:45.082Z,10.08
2022-11-17T06:01:57.714Z,10.01
2022-11-17T06:04:02.997Z,9.61
2022-11-17T06:06:05.028Z,9.50
2022-11-17T06:08:07.110Z,9.67
2022-11-17T06:10:09.140Z,9.83
2022-11-17T06:12:12.081Z,9.60
2022-11-17T06:14:13.766Z,9.62
2022-11-17T06:16:18.492Z,9.67
2022-11-17T06:18:20.612Z,9.74
2022-11-17T06:20:25.864Z,9.67
2022-11-17T06:22:27.840Z,9.63
2022-11-17T06:24:29.466Z,9.64
2022-11-17T06:26:31.103Z,9.59
2022-11-17T06:28:34.276Z,9.74
2022-11-17T06:30:36.874Z,9.78
2022-11-17T06:32:43.234Z,9.91
2022-11-17T06:34:51.960Z,9.89
2022-11-17T06:36:56.640Z,9.73
2022-11-17T06:38:58.858Z,9.72
2022-11-17T06:41:00.498Z,9.80
2022-11-17T06:43:11.198Z,9.92
2022-11-17T06:45:12.900Z,9.76
2022-11-17T06:47:14.521Z,9.82
2022-11-17T06:49:16.299Z,9.81
2022-11-17T06:51:17.977Z,9.87
2022-11-17T06:53:19.754Z,9.98
2022-11-17T06:55:21.340Z,10.11
2022-11-17T06:57:23.075Z,10.22
2022-11-17T06:59:24.749Z,10.23
2022-11-17T07:01:26.514Z,10.30
2022-11-17T07:03:28.301Z,10.32
2022-11-17T07:05:31.826Z,10.43
2022-11-17T07:07:33.609Z,10.55
2022-11-17T07:09:35.418Z,10.67
2022-11-17T07:11:37.175Z,10.74
2022-11-17T07:13:39.065Z,10.76
2022-11-17T07:15:40.914Z,10.90
2022-11-17T07:17:42.588Z,10.96
2022-11-17T07:19:44.266Z,11.05
2022-11-17T07:21:45.963Z,11.10
2022-11-17T07:23:47.719Z,11.16
2022-11-17T07:25:52.897Z,11.16
2022-11-17T07:27:59.442Z,11.20
2022-11-17T07:30:01.077Z,11.20
2022-11-17T07:32:02.643Z,11.26
2022-11-17T07:34:04.384Z,11.25
2022-11-17T07:36:08.002Z,11.28
2022-11-17T07:38:09.635Z,11.27
2022-11-17T07:40:11.501Z,11.39
2022-11-17T07:42:13.123Z,11.58
2022-11-17T07:44:14.791Z,11.74
2022-11-17T07:46:16.521Z,11.77
2022-11-17T07:48:18.325Z,11.82
2022-11-17T07:50:20.037Z,11.88
2022-11-17T07:52:21.712Z,11.98
2022-11-17T07:54:23.624Z,12.07
2022-11-17T07:56:25.269Z,12.09
2022-11-17T07:58:26.944Z,12.13
2022-11-17T08:00:30.292Z,12.13
2022-11-17T08:02:32.202Z,12.18
2022-11-17T08:04:33.931Z,12.31
2022-11-17T08:06:36.656Z,12.57
2022-11-17T08:08:39.013Z,12.81
2022-11-17T08:10:41.137Z,13.05
2022-11-17T08:12:43.070Z,13.11
2022-11-17T08:14:44.732Z,13.17
2022-11-17T08:16:46.775Z,13.21
2022-11-17T08:18:52.079Z,13.06
2022-11-17T08:21:02.503Z,12.97
2022-11-17T08:23:04.399Z,12.90
2022-11-17T08:25:06.430Z,12.85
2022-11-17T08:27:08.096Z,12.84
2022-11-17T08:29:09.717Z,12.95
2022-11-17T08:31:11.401Z,13.15
2022-11-17T08:33:13.016Z,13.38
2022-11-17T08:35:15.127Z,13.58
2022-11-17T08:37:16.926Z,13.65
2022-11-17T08:39:18.526Z,13.66
2022-11-17T08:41:21.775Z,13.90
2022-11-17T08:43:23.778Z,14.10
2022-11-17T08:45:26.235Z,14.10
2022-11-17T08:47:27.876Z,14.19
2022-11-17T08:49:29.576Z,14.24
2022-11-17T08:51:31.255Z,14.32
2022-11-17T08:53:32.981Z,14.45
2022-11-17T08:55:40.927Z,14.64
2022-11-17T08:57:43.925Z,14.74
2022-11-17T08:59:45.628Z,14.69
2022-11-17T09:01:47.344Z,14.74
2022-11-17T09:03:49.224Z,14.59
2022-11-17T09:05:51.206Z,14.56
2022-11-17T09:07:53.024Z,14.48
2022-11-17T09:09:54.681Z,14.49
2022-11-17T09:11:56.320Z,14.63
2022-11-17T09:13:58.035Z,14.67
2022-11-17T09:16:03.801Z,14.70
2022-11-17T09:18:05.763Z,14.71
2022-11-17T09:20:07.653Z,14.50
2022-11-17T09:22:09.288Z,14.44
2022-11-17T09:24:11.307Z,14.34
2022-11-17T09:26:14.778Z,14.27
2022-11-17T09:28:16.414Z,14.34
2022-11-17T09:30:22.072Z,14.29
2022-11-17T09:32:23.751Z,14.29
2022-11-17T09:34:25.644Z,14.22
2022-11-17T09:36:27.509Z,14.30
2022-11-17T09:38:29.204Z,14.29
2022-11-17T09:40:37.524Z,14.22
2022-11-17T09:42:40.368Z,14.20
2022-11-17T09:44:48.658Z,14.18
2022-11-17T09:47:18.454Z,14.14
2022-11-17T09:49:41.373Z,14.26
2022-11-17T09:51:45.155Z,14.36
2022-11-17T09:53:49.964Z,14.42
2022-11-17T09:56:01.294Z,14.41
2022-11-17T09:58:30.228Z,14.39
2022-11-17T10:00:32.363Z,14.34
2022-11-17T10:02:34.314Z,14.39
2022-11-17T10:04:36.053Z,14.36
2022-11-17T10:06:38.259Z,14.39
2022-11-17T10:09:01.904Z,14.39
2022-11-17T10:11:23.471Z,14.39
2022-11-17T10:13:34.851Z,14.52
2022-11-17T10:15:47.485Z,14.55
2022-11-17T10:17:50.641Z,14.52
2022-11-17T10:19:52.319Z,14.51
2022-11-17T10:22:03.174Z,14.49
2022-11-17T10:24:05.254Z,14.48
2022-11-17T10:26:13.139Z,14.52
2022-11-17T10:28:44.248Z,14.45
2022-11-17T10:30:54.174Z,14.55
2022-11-17T10:32:57.977Z,14.66
2022-11-17T10:35:19.341Z,14.79
2022-11-17T10:37:31.949Z,14.87
2022-11-17T10:39:39.509Z,14.95
2022-11-17T10:41:43.156Z,14.77
2022-11-17T10:44:01.639Z,15.09
2022-11-17T10:46:17.099Z,15.22
2022-11-17T10:48:24.714Z,15.37
2022-11-17T10:50:27.786Z,15.65
2022-11-17T10:52:29.383Z,15.75
2022-11-17T10:54:31.011Z,15.84
2022-11-17T10:56:47.340Z,15.84
2022-11-17T10:59:15.627Z,16.02
2022-11-17T11:01:28.022Z,16.01
2022-11-17T11:03:36.142Z,15.88
2022-11-17T11:05:38.663Z,15.70
2022-11-17T11:07:40.651Z,15.40
2022-11-17T11:09:48.832Z,15.18
2022-11-17T11:11:52.083Z,15.08
2022-11-17T11:14:00.404Z,15.04
2022-11-17T11:16:02.100Z,15.16
2022-11-17T11:18:14.610Z,15.15
2022-11-17T11:20:18.646Z,15.29
2022-11-17T11:22:42.336Z,15.52
2022-11-17T11:25:02.396Z,15.67
2022-11-17T11:27:13.231Z,15.53
2022-11-17T11:29:18.875Z,15.51
2022-11-17T11:31:26.525Z,15.51
2022-11-17T11:33:38.415Z,15.43
2022-11-17T11:35:52.255Z,15.46
2022-11-17T11:37:59.741Z,15.41
2022-11-17T11:40:22.208Z,15.34
2022-11-17T11:42:45.954Z,15.36
2022-11-17T11:45:13.318Z,15.38
2022-11-17T11:47:39.998Z,15.40
2022-11-17T11:50:21.582Z,15.29
2022-11-17T11:52:27.815Z,15.24
2022-11-17T11:54:40.605Z,15.24
2022-11-17T11:56:44.507Z,15.25
2022-11-17T11:59:03.571Z,15.18
2022-11-17T12:01:06.971Z,15.18
2022-11-17T12:03:21.375Z,15.40
2022-11-17T12:06:27.282Z,15.41
2022-11-17T12:08:42.905Z,15.38
2022-11-17T12:11:24.024Z,15.28
2022-11-17T12:13:26.137Z,15.23
2022-11-17T12:15:31.807Z,15.24
2022-11-17T12:17:33.510Z,15.22
2022-11-17T12:19:44.312Z,15.23
2022-11-17T12:21:54.179Z,15.22
2022-11-17T12:24:18.231Z,15.10
2022-11-17T12:26:28.887Z,14.98
2022-11-17T12:28:39.236Z,14.96
2022-11-17T12:30:44.014Z,14.96
2022-11-17T12:32:48.742Z,15.06
2022-11-17T12:35:28.634Z,15.25
2022-11-17T12:37:30.319Z,15.49
2022-11-17T12:39:58.020Z,15.57
2022-11-17T12:42:07.525Z,15.56
2022-11-17T12:44:37.426Z,15.69
2022-11-17T12:46:39.198Z,15.71
2022-11-17T12:48:49.166Z,15.67
2022-11-17T12:51:01.956Z,15.69
2022-11-17T12:53:09.346Z,15.76
2022-11-17T12:55:13.883Z,15.74
2022-11-17T12:57:26.409Z,15.72
2022-11-17T12:59:51.180Z,15.75
2022-11-17T13:02:15.586Z,15.74
2022-11-17T13:04:43.761Z,15.64
2022-11-17T13:07:07.942Z,15.69
2022-11-17T13:09:12.477Z,15.83
2022-11-17T13:11:17.207Z,15.85
2022-11-17T13:13:24.023Z,15.88
2022-11-17T13:15:25.929Z,15.79
2022-11-17T13:17:32.113Z,15.84
2022-11-17T13:19:36.824Z,15.87
2022-11-17T13:21:38.564Z,15.91
2022-11-17T13:23:44.145Z,15.99
2022-11-17T13:25:45.886Z,16.01
2022-11-17T13:27:54.158Z,15.95
2022-11-17T13:30:16.176Z,15.82
2022-11-17T13:32:20.303Z,15.73
2022-11-17T13:34:21.986Z,15.72
2022-11-17T13:36:27.157Z,15.71
2022-11-17T13:38:28.890Z,15.68
2022-11-17T13:40:31.237Z,15.69
2022-11-17T13:42:33.450Z,15.59
2022-11-17T13:44:35.214Z,15.53
2022-11-17T13:46:37.002Z,15.42
2022-11-17T13:48:40.815Z,15.36
2022-11-17T13:50:42.329Z,15.33
2022-11-17T13:52:47.147Z,15.32
2022-11-17T13:54:49.505Z,15.41
2022-11-17T13:57:15.518Z,15.23
2022-11-17T13:59:22.218Z,15.20
2022-11-17T14:01:28.509Z,15.21
2022-11-17T14:03:38.768Z,15.25
2022-11-17T14:05:55.001Z,15.28
2022-11-17T14:07:58.073Z,15.23
2022-11-17T14:10:21.349Z,15.21
2022-11-17T14:12:23.131Z,15.20
2022-11-17T14:14:32.579Z,15.15
2022-11-17T14:16:41.413Z,15.14
2022-11-17T14:18:43.019Z,15.09
2022-11-17T14:20:44.765Z,15.10
2022-11-17T14:23:25.645Z,15.04
2022-11-17T14:25:28.637Z,15.01
2022-11-17T14:27:30.499Z,15.00
2022-11-17T14:29:32.154Z,14.97
2022-11-17T14:31:33.976Z,14.93
2022-11-17T14:33:35.578Z,14.99
2022-11-17T14:35:37.226Z,15.02
2022-11-17T14:37:38.961Z,14.97
2022-11-17T14:39:40.610Z,15.00
2022-11-17T14:41:43.875Z,14.91
2022-11-17T14:43:45.716Z,14.88
2022-11-17T14:45:48.502Z,14.93
2022-11-17T14:47:50.196Z,14.89
2022-11-17T14:49:51.869Z,14.89
2022-11-17T14:51:55.531Z,14.94
2022-11-17T14:53:57.848Z,14.93
2022-11-17T14:56:06.719Z,14.94
2022-11-17T14:58:10.120Z,14.83
2022-11-17T15:00:18.873Z,14.85
2022-11-17T15:02:22.777Z,14.90
2022-11-17T15:06:46.255Z,14.91
2022-11-17T15:08:53.036Z,14.92
2022-11-17T15:10:55.366Z,14.93
2022-11-17T15:12:57.239Z,14.93
2022-11-17T15:14:59.094Z,14.95
2022-11-17T15:17:00.765Z,14.98
2022-11-17T15:19:02.466Z,14.98
2022-11-17T15:21:06.340Z,14.96
2022-11-17T15:23:08.339Z,14.90
2022-11-17T15:25:10.009Z,14.77
2022-11-17T15:27:12.518Z,14.68
2022-11-17T15:29:18.095Z,14.60
2022-11-17T15:31:20.596Z,14.52
2022-11-17T15:33:22.349Z,14.49
2022-11-17T15:35:24.637Z,14.42
2022-11-17T15:37:26.323Z,14.36
2022-11-17T15:39:28.189Z,14.33
2022-11-17T15:41:32.838Z,14.29
2022-11-17T15:43:36.565Z,14.24
2022-11-17T15:45:38.651Z,14.21
2022-11-17T15:47:40.276Z,14.19
2022-11-17T15:49:41.841Z,14.09
2022-11-17T15:51:43.490Z,14.07
2022-11-17T15:53:46.884Z,13.96
2022-11-17T15:55:48.506Z,13.89
2022-11-17T15:57:52.824Z,13.84
2022-11-17T15:59:54.575Z,13.78
2022-11-17T16:01:56.201Z,13.78
2022-11-17T16:04:01.249Z,13.82
2022-11-17T16:06:03.566Z,13.85
2022-11-17T16:08:05.469Z,13.83
2022-11-17T16:10:07.265Z,13.86
2022-11-17T16:12:08.963Z,13.87
2022-11-17T16:14:10.623Z,13.66
2022-11-17T16:16:13.491Z,13.57
2022-11-17T16:18:15.147Z,13.53
2022-11-17T16:20:18.529Z,13.57
2022-11-17T16:22:20.258Z,13.59
2022-11-17T16:24:21.859Z,13.60
2022-11-17T16:26:25.047Z,13.61
2022-11-17T16:28:27.153Z,13.61
2022-11-17T16:30:34.228Z,13.62
2022-11-17T16:32:36.977Z,13.64
2022-11-17T16:34:41.032Z,13.64
2022-11-17T16:36:43.566Z,13.66
2022-11-17T16:39:01.297Z,13.65
2022-11-17T16:41:03.733Z,13.67
2022-11-17T16:43:05.834Z,13.64
2022-11-17T16:45:08.055Z,13.64
2022-11-17T16:47:09.891Z,13.64
2022-11-17T16:49:13.638Z,13.61
2022-11-17T16:51:15.551Z,13.58
2022-11-17T16:53:17.302Z,13.56
2022-11-17T16:55:18.986Z,13.51
2022-11-17T16:57:20.624Z,13.54
2022-11-17T16:59:22.257Z,13.49
2022-11-17T17:01:26.561Z,13.47
2022-11-17T17:03:28.150Z,13.49
2022-11-17T17:05:29.798Z,13.45
2022-11-17T17:07:32.010Z,13.45
2022-11-17T17:09:33.853Z,13.42
2022-11-17T17:11:36.201Z,13.44
2022-11-17T17:13:38.378Z,13.44
2022-11-17T17:15:39.984Z,13.42
2022-11-17T17:17:41.593Z,13.41
2022-11-17T17:19:43.276Z,13.43
2022-11-17T17:21:45.731Z,13.41
2022-11-17T17:23:47.495Z,13.38
2022-11-17T17:25:49.184Z,13.36
2022-11-17T17:27:50.812Z,13.34
2022-11-17T17:29:56.768Z,13.34
2022-11-17T17:31:58.442Z,13.34
2022-11-17T17:34:00.366Z,13.32
2022-11-17T17:36:06.927Z,13.28
2022-11-17T17:38:08.531Z,13.25
2022-11-17T17:40:11.190Z,13.23
2022-11-17T17:42:13.580Z,13.21
2022-11-17T17:44:19.558Z,13.21
2022-11-17T17:46:21.119Z,13.22
2022-11-17T17:48:22.697Z,13.22
2022-11-17T17:50:24.550Z,13.18
2022-11-17T17:52:26.310Z,13.16
2022-11-17T17:54:27.945Z,13.17
2022-11-17T17:56:30.729Z,13.15
2022-11-17T17:58:40.223Z,13.19
2022-11-17T18:00:41.861Z,13.17
2022-11-17T18:02:43.545Z,13.14
2022-11-17T18:04:45.210Z,13.13
2022-11-17T18:06:47.785Z,13.11
2022-11-17T18:08:50.161Z,13.11
2022-11-17T18:10:51.741Z,13.11
2022-11-17T18:12:53.407Z,13.08
2022-11-17T18:14:55.131Z,13.11
2022-11-17T18:16:56.916Z,13.14
2022-11-17T18:19:01.094Z,13.17
2022-11-17T18:21:08.455Z,13.15
2022-11-17T18:23:10.052Z,13.15
2022-11-17T18:25:15.197Z,13.15
2022-11-17T18:27:19.425Z,13.18
2022-11-17T18:29:21.141Z,13.18
2022-11-17T18:31:25.224Z,13.18
2022-11-17T18:33:27.151Z,13.18
2022-11-17T18:35:28.781Z,13.14
2022-11-17T18:37:31.149Z,13.17
2022-11-17T18:39:33.625Z,13.19
2022-11-17T18:41:36.011Z,13.20
2022-11-17T18:43:37.876Z,13.18
2022-11-17T18:45:39.700Z,13.13
2022-11-17T18:47:41.583Z,13.16
2022-11-17T18:49:43.267Z,13.11
2022-11-17T18:51:45.007Z,13.11
2022-11-17T18:53:46.821Z,13.10
2022-11-17T18:55:48.448Z,13.07
2022-11-17T18:57:50.294Z,13.04
2022-11-17T18:59:51.941Z,13.02
2022-11-17T19:01:53.734Z,12.93
2022-11-17T19:03:57.408Z,12.92
2022-11-17T19:05:59.187Z,12.89
2022-11-17T19:08:01.018Z,12.90
2022-11-17T19:10:02.703Z,12.93
2022-11-17T19:12:04.571Z,12.94
2022-11-17T19:14:06.481Z,12.93
2022-11-17T19:16:08.634Z,12.94
2022-11-17T19:18:10.630Z,12.88
2022-11-17T19:20:13.527Z,12.87
2022-11-17T19:22:15.239Z,12.88
2022-11-17T19:24:17.271Z,12.92
2022-11-17T19:26:24.612Z,12.96
2022-11-17T19:28:26.386Z,12.92
2022-11-17T19:30:28.129Z,12.95
2022-11-17T19:32:29.800Z,12.91
2022-11-17T19:34:31.479Z,12.86
2022-11-17T19:36:34.386Z,12.78
2022-11-17T19:38:38.626Z,12.80
2022-11-17T19:40:40.304Z,12.79
2022-11-17T19:42:42.159Z,12.81
2022-11-17T19:44:43.783Z,12.82
2022-11-17T19:46:45.532Z,12.83
2022-11-17T19:48:47.163Z,12.82
2022-11-17T19:50:54.459Z,12.83
2022-11-17T19:52:57.420Z,12.85
2022-11-17T19:54:59.282Z,12.89
2022-11-17T19:57:00.973Z,12.89
2022-11-17T19:59:03.574Z,12.91
2022-11-17T20:01:13.515Z,12.92
2022-11-17T20:03:18.215Z,12.95
2022-11-17T20:05:19.826Z,12.99
2022-11-17T20:07:21.507Z,13.02
2022-11-17T20:09:23.262Z,12.98
2022-11-17T20:11:26.983Z,12.96
2022-11-17T20:13:31.061Z,12.93
2022-11-17T20:15:34.801Z,12.92
2022-11-17T20:17:36.786Z,12.89
2022-11-17T20:19:38.719Z,12.86
2022-11-17T20:21:40.383Z,12.83
2022-11-17T20:23:43.512Z,12.78
2022-11-17T20:25:45.488Z,12.76
2022-11-17T20:27:47.075Z,12.71
2022-11-17T20:29:48.735Z,12.71
2022-11-17T20:31:50.391Z,12.65
2022-11-17T20:33:56.439Z,12.58
2022-11-17T20:36:01.198Z,12.59
2022-11-17T20:38:03.451Z,12.58
2022-11-17T20:40:05.728Z,12.56
2022-11-17T20:42:07.266Z,12.51
2022-11-17T20:44:23.935Z,12.51
2022-11-17T20:46:26.309Z,12.51
2022-11-17T20:48:29.214Z,12.49
2022-11-17T20:50:32.259Z,12.45
2022-11-17T20:52:33.865Z,12.45
2022-11-17T20:54:35.541Z,12.45
2022-11-17T20:56:37.374Z,12.44
2022-11-17T20:58:39.245Z,12.43
2022-11-17T21:00:40.931Z,12.41
2022-11-17T21:02:42.708Z,12.40
2022-11-17T21:04:44.891Z,12.40
2022-11-17T21:06:46.548Z,12.36
2022-11-17T21:08:48.250Z,12.35
2022-11-17T21:11:01.464Z,12.24
2022-11-17T21:13:03.092Z,12.24
2022-11-17T21:15:05.318Z,12.21
2022-11-17T21:17:26.930Z,12.21
2022-11-17T21:19:28.709Z,12.23
2022-11-17T21:21:30.512Z,12.23
2022-11-17T21:23:32.372Z,12.25
2022-11-17T21:25:36.361Z,12.22
2022-11-17T21:27:38.042Z,12.26
2022-11-17T21:29:39.672Z,12.23
2022-11-17T21:31:41.332Z,12.24
2022-11-17T21:33:43.925Z,12.23
2022-11-17T21:35:45.477Z,12.25
2022-11-17T21:37:47.178Z,12.27
2022-11-17T21:39:48.849Z,12.19
2022-11-17T21:41:50.453Z,12.14
2022-11-17T21:43:53.751Z,12.13
2022-11-17T21:45:55.524Z,12.14
2022-11-17T21:47:59.501Z,12.12
2022-11-17T21:50:01.301Z,12.09
2022-11-17T21:52:03.084Z,12.05
2022-11-17T21:54:07.260Z,11.99
2022-11-17T21:56:08.884Z,11.94
2022-11-17T21:58:10.640Z,11.90
2022-11-17T22:00:12.608Z,11.90
2022-11-17T22:02:14.364Z,11.91
2022-11-17T22:04:16.025Z,11.91
2022-11-17T22:06:19.739Z,11.87
2022-11-17T22:08:21.355Z,11.90
2022-11-17T22:10:23.292Z,11.89
2022-11-17T22:12:25.100Z,11.87
2022-11-17T22:14:26.932Z,11.92
2022-11-17T22:16:28.571Z,11.90
2022-11-17T22:18:30.530Z,11.91
2022-11-17T22:20:32.187Z,11.90
2022-11-17T22:22:33.853Z,11.89
2022-11-17T22:24:35.440Z,11.88
2022-11-17T22:26:38.587Z,11.81
2022-11-17T22:28:40.434Z,11.79
2022-11-17T22:30:42.091Z,11.62
2022-11-17T22:32:45.376Z,11.54
2022-11-17T22:34:47.445Z,11.52
2022-11-17T22:36:49.058Z,11.51
2022-11-17T22:38:51.672Z,11.50
2022-11-17T22:41:02.562Z,11.52
2022-11-17T22:43:04.758Z,11.55
2022-11-17T22:45:07.323Z,11.56
2022-11-17T22:47:08.987Z,11.58
2022-11-17T22:49:10.714Z,11.58
2022-11-17T22:51:12.786Z,11.58
2022-11-17T22:53:14.517Z,11.58
2022-11-17T22:55:16.258Z,11.44
2022-11-17T22:57:17.924Z,11.37
2022-11-17T22:59:21.192Z,11.39
2022-11-17T23:01:22.872Z,11.34
2022-11-17T23:03:24.766Z,11.30
2022-11-17T23:05:26.461Z,11.25
2022-11-17T23:07:28.174Z,11.24
2022-11-17T23:09:29.798Z,11.22
2022-11-17T23:11:38.723Z,11.22
2022-11-17T23:13:40.373Z,11.25
2022-11-17T23:15:42.005Z,11.25
2022-11-17T23:17:43.755Z,11.26
2022-11-17T23:19:45.409Z,11.25
2022-11-17T23:21:47.031Z,11.23
2022-11-17T23:23:48.956Z,11.20
2022-11-17T23:25:50.547Z,11.22
2022-11-17T23:27:52.108Z,11.21
2022-11-17T23:29:54.132Z,11.17
2022-11-17T23:31:55.891Z,11.16
2022-11-17T23:34:16.414Z,11.10
2022-11-17T23:36:20.435Z,11.07
2022-11-17T23:38:22.083Z,11.07
2022-11-17T23:40:24.971Z,11.04
2022-11-17T23:42:32.119Z,11.04
2022-11-17T23:44:34.175Z,11.05
2022-11-17T23:46:35.781Z,11.03
2022-11-17T23:48:37.618Z,11.05
2022-11-17T23:50:39.202Z,11.09
2022-11-17T23:52:40.850Z,11.07
2022-11-17T23:54:42.531Z,11.10
2022-11-17T23:56:44.175Z,11.06
2022-11-17T23:58:45.924Z,10.99
